Venters, Kentucky
Current Conditions -  °F | °C
As of 2:55 PM on Thursday 18 Dec 2014 (Local Time) from KPBX Reporting Station
Overcast Overcast  
Wind Chill: 29°   Ceiling: 7500
Heat Index: 35°   Visibility: 10mi
Dew Point: 25°   Wind: 7mph
Humidity: 68%   Direction: 330°NNW
Pressure: 30.14"   Gusts: NA
Location:  37.3089°N, 82.3418°W
Report Text: KPBX 181955Z AUTO 33006KT 10SM OVC075 02/M04 A3014 RMK AO2 T00171037
Loading
Personal Weather Stations






























Interactive Weather Map New forecast layout! Learn more

10-Day Weather Forecast

Advertisements
Track Severe Weather on mobile